createdAt,value
2023-03-13T00:02:23.604Z,0.90
2023-03-13T00:04:52.049Z,2.70
2023-03-13T00:07:30.959Z,2.40
2023-03-13T00:10:18.992Z,1.10
2023-03-13T00:12:47.974Z,2.60
2023-03-13T00:15:18.295Z,1.00
2023-03-13T00:17:50.455Z,0.80
2023-03-13T00:20:19.867Z,1.30
2023-03-13T00:22:53.328Z,2.10
2023-03-13T00:25:21.575Z,1.90
2023-03-13T00:27:50.737Z,0.60
2023-03-13T00:30:23.105Z,1.80
2023-03-13T00:32:56.628Z,1.60
2023-03-13T00:35:25.442Z,1.20
2023-03-13T00:37:54.825Z,0.90
2023-03-13T00:40:27.493Z,0.50
2023-03-13T00:42:57.984Z,3.90
2023-03-13T00:45:27.623Z,2.10
2023-03-13T00:47:56.414Z,0.70
2023-03-13T00:50:28.892Z,3.80
2023-03-13T00:52:57.768Z,2.50
2023-03-13T00:55:25.834Z,1.40
2023-03-13T00:57:55.253Z,1.40
2023-03-13T01:00:24.349Z,2.30
2023-03-13T01:02:54.851Z,1.40
2023-03-13T01:05:23.360Z,0.80
2023-03-13T01:07:52.975Z,1.60
2023-03-13T01:10:27.085Z,1.90
2023-03-13T01:12:55.682Z,1.80
2023-03-13T01:15:24.562Z,5.70
2023-03-13T01:17:55.015Z,4.10
2023-03-13T01:20:27.165Z,5.60
2023-03-13T01:22:55.321Z,2.30
2023-03-13T01:25:26.690Z,0.70
2023-03-13T01:27:55.062Z,1.90
2023-03-13T01:30:24.058Z,1.10
2023-03-13T01:32:57.392Z,1.20
2023-03-13T01:35:26.782Z,4.80
2023-03-13T01:37:56.870Z,1.40
2023-03-13T01:40:25.772Z,0.80
2023-03-13T01:42:58.752Z,2.90
2023-03-13T01:45:57.748Z,3.60
2023-03-13T01:48:37.112Z,1.60
2023-03-13T01:51:13.634Z,1.90
2023-03-13T01:53:43.474Z,5.40
2023-03-13T01:56:23.530Z,1.50
2023-03-13T01:58:52.412Z,2.00
2023-03-13T02:01:20.744Z,4.60
2023-03-13T02:03:51.430Z,1.20
2023-03-13T02:06:19.669Z,1.30
2023-03-13T02:08:54.635Z,1.10
2023-03-13T02:11:28.339Z,1.70
2023-03-13T02:13:57.680Z,3.30
2023-03-13T02:16:26.696Z,2.20
2023-03-13T02:18:55.840Z,1.60
2023-03-13T02:21:43.239Z,1.90
2023-03-13T02:24:14.497Z,1.80
2023-03-13T02:26:42.978Z,2.00
2023-03-13T02:29:18.700Z,1.50
2023-03-13T02:31:48.390Z,3.20
2023-03-13T02:34:20.097Z,3.10
2023-03-13T02:36:49.012Z,2.90
2023-03-13T02:39:17.755Z,1.50
2023-03-13T02:41:46.248Z,2.30
2023-03-13T02:44:14.945Z,2.20
2023-03-13T02:46:48.982Z,2.50
2023-03-13T02:49:23.695Z,2.50
2023-03-13T02:51:58.507Z,4.50
2023-03-13T02:54:34.404Z,1.80
2023-03-13T02:57:04.263Z,1.20
2023-03-13T02:59:32.464Z,0.90
2023-03-13T03:02:01.888Z,4.50
2023-03-13T03:04:30.867Z,2.40
2023-03-13T03:06:59.863Z,2.10
2023-03-13T03:09:28.847Z,2.50
2023-03-13T03:12:03.176Z,2.20
2023-03-13T03:14:31.855Z,2.00
2023-03-13T03:17:00.652Z,1.50
2023-03-13T03:19:31.606Z,1.50
2023-03-13T03:22:00.276Z,2.30
2023-03-13T03:24:28.751Z,1.90
2023-03-13T03:26:57.535Z,1.80
2023-03-13T03:29:29.397Z,2.40
2023-03-13T03:31:58.062Z,2.70
2023-03-13T03:34:26.831Z,2.20
2023-03-13T03:36:56.269Z,1.50
2023-03-13T03:39:25.170Z,11.00
2023-03-13T03:41:54.572Z,3.50
2023-03-13T03:44:23.045Z,2.10
2023-03-13T03:46:58.641Z,3.80
2023-03-13T03:49:28.518Z,3.70
2023-03-13T03:51:57.396Z,2.50
2023-03-13T03:54:30.705Z,2.10
2023-03-13T03:56:59.486Z,4.20
2023-03-13T03:59:33.085Z,2.10
2023-03-13T04:02:07.561Z,1.90
2023-03-13T04:04:36.502Z,2.60
2023-03-13T04:07:23.335Z,2.30
2023-03-13T04:09:52.213Z,2.40
2023-03-13T04:12:26.420Z,5.10
2023-03-13T04:14:57.073Z,4.50
2023-03-13T04:17:25.383Z,3.50
2023-03-13T04:19:54.472Z,3.80
2023-03-13T04:22:23.115Z,3.80
2023-03-13T04:24:56.210Z,4.20
2023-03-13T04:27:25.508Z,3.00
2023-03-13T04:29:53.881Z,3.50
2023-03-13T04:32:41.648Z,3.30
2023-03-13T04:35:28.845Z,4.20
2023-03-13T04:38:16.059Z,2.10
2023-03-13T04:41:14.747Z,2.80
2023-03-13T04:44:00.944Z,4.20
2023-03-13T04:47:00.868Z,2.10
2023-03-13T04:49:42.041Z,3.30
2023-03-13T04:52:33.403Z,1.90
2023-03-13T04:55:15.052Z,3.50
2023-03-13T04:58:03.608Z,3.60
2023-03-13T05:00:41.502Z,4.40
2023-03-13T05:03:23.311Z,3.70
2023-03-13T05:06:12.721Z,3.20
2023-03-13T05:09:09.769Z,1.60
2023-03-13T05:12:02.883Z,3.00
2023-03-13T05:14:57.169Z,3.30
2023-03-13T05:17:45.823Z,1.80
2023-03-13T05:20:32.749Z,3.60
2023-03-13T05:23:20.573Z,1.90
2023-03-13T05:26:11.745Z,1.80
2023-03-13T05:28:52.556Z,3.80
2023-03-13T05:31:36.295Z,2.20
2023-03-13T05:34:40.522Z,5.90
2023-03-13T05:37:40.859Z,2.30
2023-03-13T05:40:33.137Z,2.00
2023-03-13T05:43:13.280Z,1.50
2023-03-13T05:46:05.021Z,2.50
2023-03-13T05:48:53.414Z,1.90
2023-03-13T05:51:52.075Z,2.80
2023-03-13T05:54:41.886Z,5.20
2023-03-13T05:57:23.675Z,2.70
2023-03-13T06:00:05.170Z,3.10
2023-03-13T06:02:44.602Z,2.60
2023-03-13T06:05:18.403Z,1.40
2023-03-13T06:07:49.751Z,3.40
2023-03-13T06:10:18.238Z,2.50
2023-03-13T06:12:53.177Z,3.90
2023-03-13T06:15:22.468Z,3.20
2023-03-13T06:18:19.526Z,3.50
2023-03-13T06:20:49.189Z,3.50
2023-03-13T06:23:17.291Z,2.90
2023-03-13T06:25:48.523Z,3.20
2023-03-13T06:28:17.044Z,3.30
2023-03-13T06:30:45.615Z,5.20
2023-03-13T06:33:14.493Z,3.10
2023-03-13T06:35:55.798Z,2.40
2023-03-13T06:38:25.704Z,3.60
2023-03-13T06:40:55.826Z,3.80
2023-03-13T06:43:24.509Z,5.80
2023-03-13T06:45:53.199Z,4.80
2023-03-13T06:48:23.210Z,3.60
2023-03-13T06:50:51.591Z,4.40
2023-03-13T06:53:20.803Z,6.90
2023-03-13T06:55:51.730Z,4.80
2023-03-13T06:58:31.627Z,5.20
2023-03-13T07:01:07.079Z,4.70
2023-03-13T07:03:36.146Z,8.40
2023-03-13T07:06:06.062Z,5.80
2023-03-13T07:08:34.633Z,5.20
2023-03-13T07:11:08.022Z,6.00
2023-03-13T07:13:38.242Z,5.80
2023-03-13T07:16:08.396Z,5.30
2023-03-13T07:18:42.276Z,3.70
2023-03-13T07:21:11.126Z,4.80
2023-03-13T07:23:39.548Z,6.30
2023-03-13T07:26:10.637Z,10.20
2023-03-13T07:28:39.679Z,6.60
2023-03-13T07:31:13.359Z,5.30
2023-03-13T07:33:45.037Z,8.50
2023-03-13T07:36:15.970Z,8.70
2023-03-13T07:38:50.925Z,5.00
2023-03-13T07:41:20.215Z,8.60
2023-03-13T07:43:50.166Z,6.10
2023-03-13T07:46:20.050Z,11.80
2023-03-13T07:48:51.189Z,4.70
2023-03-13T07:51:36.925Z,6.90
2023-03-13T07:54:16.221Z,5.60
2023-03-13T07:56:45.624Z,4.90
2023-03-13T07:59:13.882Z,6.50
2023-03-13T08:01:42.363Z,8.10
2023-03-13T08:04:13.217Z,7.00
2023-03-13T08:06:47.619Z,5.00
2023-03-13T08:09:16.001Z,5.80
2023-03-13T08:11:46.989Z,7.20
2023-03-13T08:14:15.217Z,5.00
2023-03-13T08:16:44.910Z,8.70
2023-03-13T08:19:13.110Z,5.90
2023-03-13T08:21:42.192Z,6.70
2023-03-13T08:24:11.455Z,7.70
2023-03-13T08:26:42.025Z,7.10
2023-03-13T08:29:12.446Z,8.10
2023-03-13T08:31:48.044Z,7.50
2023-03-13T08:34:17.704Z,7.40
2023-03-13T08:36:46.294Z,6.80
2023-03-13T08:39:15.994Z,5.10
2023-03-13T08:41:45.046Z,4.80
2023-03-13T08:44:14.702Z,8.60
2023-03-13T08:46:44.223Z,12.10
2023-03-13T08:49:13.709Z,6.30
2023-03-13T08:51:42.633Z,7.30
2023-03-13T08:54:10.795Z,9.90
2023-03-13T08:56:41.412Z,9.10
2023-03-13T08:59:10.530Z,7.80
2023-03-13T09:01:38.998Z,4.80
2023-03-13T09:04:08.492Z,9.30
2023-03-13T09:06:37.808Z,9.50
2023-03-13T09:09:07.319Z,7.70
2023-03-13T09:11:42.346Z,7.70
2023-03-13T09:14:10.747Z,10.60
2023-03-13T09:16:39.052Z,7.80
2023-03-13T09:19:07.481Z,7.80
2023-03-13T09:21:41.912Z,10.60
2023-03-13T09:24:11.011Z,8.10
2023-03-13T09:26:42.700Z,13.30
2023-03-13T09:29:14.928Z,5.20
2023-03-13T09:31:43.387Z,7.80
2023-03-13T09:34:12.197Z,7.20
2023-03-13T09:36:41.496Z,7.70
2023-03-13T09:39:09.558Z,8.00
2023-03-13T09:42:11.432Z,8.20
2023-03-13T09:45:04.802Z,7.50
2023-03-13T09:47:46.899Z,6.90
2023-03-13T09:50:25.836Z,6.60
2023-03-13T09:52:57.104Z,8.70
2023-03-13T09:55:35.280Z,8.90
2023-03-13T09:58:25.675Z,10.20
2023-03-13T10:01:04.567Z,9.90
2023-03-13T10:04:21.696Z,6.40
2023-03-13T10:06:50.106Z,5.20
2023-03-13T10:09:33.952Z,8.00
2023-03-13T10:12:19.146Z,7.00
2023-03-13T10:14:58.578Z,6.50
2023-03-13T10:17:37.791Z,8.30
2023-03-13T10:20:34.229Z,4.50
2023-03-13T10:23:15.220Z,7.80
2023-03-13T10:25:43.984Z,8.80
2023-03-13T10:28:13.861Z,8.70
2023-03-13T10:31:08.766Z,8.00
2023-03-13T10:33:37.436Z,7.20
2023-03-13T10:36:11.152Z,7.30
2023-03-13T10:38:50.442Z,6.30
2023-03-13T10:41:45.020Z,5.10
2023-03-13T10:44:15.885Z,9.70
2023-03-13T10:46:46.577Z,7.90
2023-03-13T10:49:20.027Z,7.80
2023-03-13T10:51:55.760Z,7.40
2023-03-13T10:54:29.698Z,7.80
2023-03-13T10:57:20.766Z,8.10
2023-03-13T10:59:52.422Z,7.50
2023-03-13T11:15:57.584Z,6.30
2023-03-13T11:18:31.476Z,7.60
2023-03-13T11:21:15.695Z,7.50
2023-03-13T11:23:50.132Z,8.10
2023-03-13T11:26:23.466Z,10.00
2023-03-13T11:29:18.193Z,6.60
2023-03-13T11:31:51.875Z,8.50
2023-03-13T11:34:25.875Z,8.70
2023-03-13T11:37:02.590Z,6.70
2023-03-13T11:39:52.600Z,6.00
2023-03-13T11:42:39.519Z,8.30
2023-03-13T11:45:34.224Z,7.10
2023-03-13T11:48:08.979Z,6.30
2023-03-13T11:53:46.708Z,6.30
2023-03-13T11:56:24.263Z,6.70
2023-03-13T11:59:27.444Z,7.20
2023-03-13T12:02:19.131Z,6.50
2023-03-13T12:05:19.841Z,8.20
2023-03-13T12:08:00.477Z,6.00
2023-03-13T12:10:36.024Z,6.30
2023-03-13T12:13:04.200Z,10.30
2023-03-13T12:15:39.435Z,5.60
2023-03-13T12:18:20.012Z,5.90
2023-03-13T12:21:36.842Z,7.60
2023-03-13T12:24:39.605Z,7.30
2023-03-13T12:27:34.607Z,7.20
2023-03-13T12:30:14.970Z,5.70
2023-03-13T12:32:57.032Z,6.20
2023-03-13T12:35:33.398Z,6.90
2023-03-13T12:38:25.386Z,6.80
2023-03-13T12:41:08.698Z,7.00
2023-03-13T12:43:39.954Z,5.80
2023-03-13T12:46:36.288Z,6.40
2023-03-13T12:49:18.601Z,6.50
2023-03-13T12:52:26.409Z,6.00
2023-03-13T12:55:00.503Z,5.10
2023-03-13T12:57:55.161Z,8.50
2023-03-13T13:00:25.457Z,5.70
2023-03-13T13:03:39.063Z,6.80
2023-03-13T13:06:16.554Z,9.20
2023-03-13T13:08:54.466Z,6.50
2023-03-13T13:11:37.908Z,6.10
2023-03-13T13:14:19.079Z,6.60
2023-03-13T13:17:16.262Z,7.50
2023-03-13T13:19:46.376Z,7.20
2023-03-13T13:22:37.000Z,5.50
2023-03-13T13:25:08.392Z,6.70
2023-03-13T13:27:37.183Z,6.10
2023-03-13T13:30:17.752Z,7.10
2023-03-13T13:32:46.099Z,6.60
2023-03-13T13:35:20.546Z,6.30
2023-03-13T13:37:49.607Z,7.40
2023-03-13T13:40:24.151Z,7.90
2023-03-13T13:42:56.327Z,6.20
2023-03-13T13:45:45.906Z,6.30
2023-03-13T13:48:34.372Z,6.40
2023-03-13T13:51:11.646Z,6.60
2023-03-13T13:53:56.305Z,7.00
2023-03-13T13:56:28.017Z,7.10
2023-03-13T13:59:03.240Z,8.40
2023-03-13T14:01:31.851Z,10.60
2023-03-13T14:04:41.143Z,5.60
2023-03-13T14:07:19.345Z,7.20
2023-03-13T14:10:10.064Z,8.70
2023-03-13T14:12:39.565Z,6.10
2023-03-13T14:15:29.126Z,5.80
2023-03-13T14:18:16.040Z,6.40
2023-03-13T14:20:50.561Z,7.60
2023-03-13T14:23:45.134Z,7.60
2023-03-13T14:26:13.644Z,5.80
2023-03-13T14:28:43.472Z,6.60
2023-03-13T14:31:22.494Z,6.70
2023-03-13T14:33:50.869Z,7.00
2023-03-13T14:36:19.241Z,5.90
2023-03-13T14:38:55.124Z,5.40
2023-03-13T14:41:33.260Z,12.80
2023-03-13T14:44:06.328Z,6.90
2023-03-13T14:46:36.440Z,7.40
2023-03-13T14:49:25.906Z,7.60
2023-03-13T14:52:20.789Z,7.80
2023-03-13T14:55:02.588Z,5.30
2023-03-13T14:57:31.164Z,5.90
2023-03-13T15:00:29.751Z,8.50
2023-03-13T15:03:21.687Z,7.80
2023-03-13T15:06:07.878Z,7.50
2023-03-13T15:08:37.141Z,6.90
2023-03-13T15:11:22.872Z,7.30
2023-03-13T15:13:51.753Z,8.40
2023-03-13T15:16:21.738Z,7.60
2023-03-13T15:18:50.666Z,7.50
2023-03-13T15:21:24.276Z,7.30
2023-03-13T15:23:56.843Z,9.10
2023-03-13T15:26:25.129Z,8.60
2023-03-13T15:28:53.616Z,7.60
2023-03-13T15:31:25.421Z,8.40
2023-03-13T15:33:59.176Z,7.30
2023-03-13T15:36:30.871Z,10.10
2023-03-13T15:38:58.998Z,7.40
2023-03-13T15:41:27.694Z,9.10
2023-03-13T15:43:57.223Z,6.60
2023-03-13T15:46:25.744Z,8.50
2023-03-13T15:48:55.796Z,8.50
2023-03-13T15:51:24.168Z,10.40
2023-03-13T15:53:53.683Z,9.40
2023-03-13T15:56:25.448Z,7.40
2023-03-13T15:58:54.645Z,8.50
2023-03-13T16:01:23.581Z,7.20
2023-03-13T16:03:52.006Z,7.30
2023-03-13T16:06:31.013Z,9.50
2023-03-13T16:09:01.396Z,8.60
2023-03-13T16:11:30.043Z,8.60
2023-03-13T16:14:00.577Z,8.10
2023-03-13T16:16:31.374Z,8.90
2023-03-13T16:19:00.526Z,8.30
2023-03-13T16:21:30.532Z,10.90
2023-03-13T16:23:59.116Z,8.10
2023-03-13T16:26:29.327Z,9.10
2023-03-13T16:28:58.253Z,9.20
2023-03-13T16:31:28.486Z,10.00
2023-03-13T16:33:57.078Z,7.30
2023-03-13T16:36:28.736Z,9.70
2023-03-13T16:38:58.190Z,10.40
2023-03-13T16:41:27.794Z,7.70
2023-03-13T16:43:56.108Z,7.80
2023-03-13T16:46:30.832Z,9.70
2023-03-13T16:48:59.835Z,12.00
2023-03-13T16:51:28.689Z,9.10
2023-03-13T16:53:57.735Z,10.70
2023-03-13T16:56:30.568Z,8.40
2023-03-13T16:58:59.253Z,7.40
2023-03-13T17:01:30.122Z,8.30
2023-03-13T17:03:58.702Z,7.00
2023-03-13T17:06:29.409Z,8.10
2023-03-13T17:09:04.762Z,7.30
2023-03-13T17:11:34.051Z,7.50
2023-03-13T17:14:03.960Z,8.10
2023-03-13T17:16:33.830Z,6.50
2023-03-13T17:19:03.404Z,7.70
2023-03-13T17:21:35.143Z,8.20
2023-03-13T17:24:03.521Z,9.20
2023-03-13T17:26:36.819Z,9.30
2023-03-13T17:29:05.814Z,7.90
2023-03-13T17:31:38.612Z,7.60
2023-03-13T17:34:10.713Z,8.20
2023-03-13T17:36:40.161Z,8.90
2023-03-13T17:39:10.896Z,8.00
2023-03-13T17:41:39.789Z,8.80
2023-03-13T17:44:08.068Z,8.60
2023-03-13T17:46:39.373Z,8.30
2023-03-13T17:49:08.098Z,8.80
2023-03-13T17:51:36.590Z,13.00
2023-03-13T17:54:05.600Z,7.00
2023-03-13T17:56:39.288Z,9.50
2023-03-13T17:59:13.911Z,7.60
2023-03-13T18:01:42.466Z,8.10
2023-03-13T18:04:12.412Z,8.80
2023-03-13T18:06:47.547Z,11.00
2023-03-13T18:09:20.945Z,7.70
2023-03-13T18:11:50.763Z,12.00
2023-03-13T18:14:19.745Z,9.50
2023-03-13T18:16:48.966Z,8.10
2023-03-13T18:19:23.167Z,9.30
2023-03-13T18:21:55.431Z,5.80
2023-03-13T18:24:28.224Z,10.70
2023-03-13T18:26:56.494Z,10.50
2023-03-13T18:29:29.440Z,8.90
2023-03-13T18:32:00.529Z,8.90
2023-03-13T18:34:28.920Z,7.70
2023-03-13T18:36:57.181Z,6.30
2023-03-13T18:39:25.563Z,10.40
2023-03-13T18:41:54.156Z,10.70
2023-03-13T18:44:24.376Z,10.20
2023-03-13T18:46:53.266Z,8.30
2023-03-13T18:49:22.250Z,9.30
2023-03-13T18:51:51.575Z,9.30
2023-03-13T18:54:19.926Z,5.30
2023-03-13T18:56:48.962Z,8.10
2023-03-13T18:59:21.277Z,8.60
2023-03-13T19:01:49.406Z,9.90
2023-03-13T19:04:17.859Z,8.40
2023-03-13T19:06:46.331Z,6.90
2023-03-13T19:09:41.012Z,10.90
2023-03-13T19:12:05.209Z,10.10
2023-03-13T19:14:34.109Z,7.30
2023-03-13T19:17:02.375Z,10.00
2023-03-13T19:19:32.393Z,9.90
2023-03-13T19:22:01.180Z,6.80
2023-03-13T19:24:29.789Z,9.10
2023-03-13T19:26:59.804Z,10.40
2023-03-13T19:29:28.708Z,8.60
2023-03-13T19:31:59.313Z,7.80
2023-03-13T19:34:28.098Z,5.80
2023-03-13T19:36:56.383Z,9.90
2023-03-13T19:39:27.518Z,6.60
2023-03-13T19:41:57.145Z,7.50
2023-03-13T19:44:30.113Z,12.00
2023-03-13T19:46:58.900Z,10.60
2023-03-13T19:49:27.090Z,10.50
2023-03-13T19:51:55.562Z,10.00
2023-03-13T19:54:24.695Z,5.30
2023-03-13T19:56:53.960Z,10.60
2023-03-13T19:59:23.724Z,7.20
2023-03-13T20:01:51.982Z,9.30
2023-03-13T20:04:20.830Z,10.40
2023-03-13T20:06:49.212Z,6.90
2023-03-13T20:09:18.397Z,13.20
2023-03-13T20:11:46.583Z,9.70
2023-03-13T20:14:16.482Z,8.70
2023-03-13T20:16:47.641Z,7.90
2023-03-13T20:19:16.001Z,9.90
2023-03-13T20:21:44.400Z,6.00
2023-03-13T20:24:12.787Z,11.90
2023-03-13T20:26:41.277Z,9.20
2023-03-13T20:29:10.113Z,9.70
2023-03-13T20:31:39.148Z,8.50
2023-03-13T20:34:09.988Z,7.40
2023-03-13T20:36:39.090Z,11.30
2023-03-13T20:39:08.491Z,8.70
2023-03-13T20:41:37.785Z,7.90
2023-03-13T20:44:05.961Z,5.90
2023-03-13T20:46:35.623Z,8.70
2023-03-13T20:49:03.840Z,8.90
2023-03-13T20:51:34.985Z,6.00
2023-03-13T20:54:03.261Z,8.50
2023-03-13T20:56:31.436Z,10.80
2023-03-13T20:58:59.712Z,5.90
2023-03-13T21:01:29.848Z,7.50
2023-03-13T21:03:59.690Z,10.10
2023-03-13T21:06:27.772Z,7.50
2023-03-13T21:08:56.150Z,8.60
2023-03-13T21:11:25.127Z,10.50
2023-03-13T21:13:53.779Z,10.80
2023-03-13T21:16:25.639Z,9.10
2023-03-13T21:18:54.726Z,9.50
2023-03-13T21:21:22.956Z,8.70
2023-03-13T21:23:53.653Z,10.30
2023-03-13T21:26:22.551Z,5.00
2023-03-13T21:28:52.998Z,9.20
2023-03-13T21:31:21.428Z,9.70
2023-03-13T21:33:49.871Z,5.60
2023-03-13T21:36:21.099Z,7.10
2023-03-13T21:38:50.271Z,6.50
2023-03-13T21:41:24.385Z,10.20
2023-03-13T21:43:53.269Z,7.30
2023-03-13T21:46:22.835Z,9.60
2023-03-13T21:48:52.625Z,9.30
2023-03-13T21:51:20.969Z,6.30
2023-03-13T21:53:49.489Z,9.20
2023-03-13T21:56:18.441Z,5.20
2023-03-13T21:58:46.829Z,8.70
2023-03-13T22:01:16.316Z,6.20
2023-03-13T22:03:44.787Z,7.50
2023-03-13T22:06:15.138Z,6.10
2023-03-13T22:08:50.787Z,10.60
2023-03-13T22:11:21.727Z,4.60
2023-03-13T22:13:51.553Z,9.60
2023-03-13T22:16:21.096Z,8.30
2023-03-13T22:18:51.776Z,10.00
2023-03-13T22:21:20.272Z,8.60
2023-03-13T22:23:48.432Z,4.30
2023-03-13T22:26:17.014Z,9.10
2023-03-13T22:28:45.438Z,5.10
2023-03-13T22:31:18.838Z,8.00
2023-03-13T22:33:47.986Z,7.00
2023-03-13T22:36:16.305Z,6.40
2023-03-13T22:38:44.950Z,6.50
2023-03-13T22:41:13.447Z,9.00
2023-03-13T22:43:41.552Z,8.90
2023-03-13T22:46:14.035Z,9.60
2023-03-13T22:48:42.664Z,7.00
2023-03-13T22:51:12.122Z,9.30
2023-03-13T22:53:41.578Z,7.30
2023-03-13T22:56:12.962Z,9.40
2023-03-13T22:58:42.972Z,9.50
2023-03-13T23:01:19.240Z,5.30
2023-03-13T23:03:50.966Z,8.80
2023-03-13T23:06:20.571Z,7.00
2023-03-13T23:08:49.258Z,11.30
2023-03-13T23:11:17.946Z,7.30
2023-03-13T23:13:50.761Z,6.50
2023-03-13T23:16:20.747Z,5.40
2023-03-13T23:18:48.844Z,9.80
2023-03-13T23:23:21.517Z,5.80
2023-03-13T23:25:49.934Z,7.40
2023-03-13T23:28:19.397Z,6.60
2023-03-13T23:30:47.983Z,8.20
2023-03-13T23:33:20.246Z,5.20
2023-03-13T23:35:48.862Z,6.60
2023-03-13T23:38:18.540Z,8.00
2023-03-13T23:40:46.605Z,6.30
2023-03-13T23:43:14.997Z,8.80
2023-03-13T23:45:43.122Z,7.90
2023-03-13T23:48:12.064Z,6.50
2023-03-13T23:50:40.344Z,9.20
2023-03-13T23:53:08.414Z,9.30
2023-03-13T23:55:36.498Z,6.10
2023-03-13T23:58:05.277Z,5.40
